Time;durP1;ratioP1;P1;durP2;ratioP2;P2;SDS_P1;SDS_P2;PMS_P1;PMS_P2;Temp;Humidity;BMP_temperature;BMP_pressure;BME280_temperature;BME280_humidity;BME280_pressure;Samples;Min_cycle;Max_cycle;Signal;HPM_P1;HPM_P2
2021/03/24 00:01:39;;;;;;;15.13;12.50;;;;;;;5.92;67.71;97162.03;5114529;28;20512;-60
2021/03/24 00:04:05;;;;;;;21.07;13.40;;;;;;;5.95;67.69;97159.06;5113459;28;20534;-59
2021/03/24 00:06:31;;;;;;;15.80;12.57;;;;;;;5.94;67.23;97151.41;5116971;28;20180;-59
2021/03/24 00:08:57;;;;;;;20.00;13.57;;;;;;;5.88;68.05;97152.94;5119168;28;20527;-60
2021/03/24 00:11:22;;;;;;;17.57;13.67;;;;;;;5.89;67.53;97154.53;5137481;27;20420;-60
2021/03/24 00:13:49;;;;;;;18.57;13.43;;;;;;;5.84;68.19;97150.84;5127085;27;20261;-59
2021/03/24 00:16:14;;;;;;;22.20;12.67;;;;;;;5.79;68.53;97147.91;5117580;27;20199;-59
2021/03/24 00:18:39;;;;;;;16.00;13.07;;;;;;;5.83;68.87;97154.44;5117108;28;20926;-59
2021/03/24 00:21:06;;;;;;;18.90;13.93;;;;;;;5.86;68.58;97154.91;5129958;27;20234;-60
2021/03/24 00:23:32;;;;;;;14.60;12.57;;;;;;;5.84;69.36;97150.84;5135987;27;20176;-59
2021/03/24 00:25:57;;;;;;;18.13;13.30;;;;;;;5.88;68.92;97149.50;5118307;27;20928;-60
2021/03/24 00:28:23;;;;;;;19.90;13.70;;;;;;;5.88;68.76;97145.09;5121581;27;20610;-60
2021/03/24 00:30:50;;;;;;;19.57;15.13;;;;;;;5.87;69.22;97143.47;5137870;27;20169;-60
2021/03/24 00:33:19;;;;;;;19.47;14.10;;;;;;;5.88;68.93;97154.72;5129238;27;20300;-60
2021/03/24 00:35:45;;;;;;;18.60;12.17;;;;;;;5.86;69.05;97144.47;5117270;27;20421;-60
2021/03/24 00:38:11;;;;;;;20.53;13.67;;;;;;;5.86;69.15;97147.06;5124697;27;20461;-58
2021/03/24 00:40:41;;;;;;;17.17;13.17;;;;;;;5.88;68.33;97142.50;5120854;27;20188;-60
2021/03/24 00:43:07;;;;;;;19.00;14.47;;;;;;;5.87;68.62;97151.28;5116756;28;20401;-59
2021/03/24 00:45:34;;;;;;;16.80;12.73;;;;;;;5.84;68.55;97141.22;5117919;27;20931;-59
2021/03/24 00:48:00;;;;;;;16.30;12.50;;;;;;;5.82;68.50;97145.78;5123261;27;20194;-59
2021/03/24 00:50:29;;;;;;;18.80;14.30;;;;;;;5.78;68.53;97141.88;5136100;27;20407;-60
2021/03/24 00:52:54;;;;;;;17.67;14.07;;;;;;;5.81;68.70;97141.56;5124075;27;20447;-58
2021/03/24 00:55:20;;;;;;;22.00;14.47;;;;;;;5.79;69.08;97140.91;5137224;27;20900;-59
2021/03/24 00:57:46;;;;;;;15.27;13.20;;;;;;;5.78;68.72;97141.88;5123727;27;20218;-59
2021/03/24 01:00:20;;;;;;;17.93;13.90;;;;;;;5.78;68.16;97134.06;5119186;27;20422;-59
2021/03/24 01:02:45;;;;;;;17.40;12.20;;;;;;;5.78;68.37;97131.47;5137239;27;20176;-60
2021/03/24 01:05:14;;;;;;;19.10;12.80;;;;;;;5.77;67.55;97137.69;5135545;27;20423;-60
2021/03/24 01:07:43;;;;;;;17.63;13.00;;;;;;;5.70;67.93;97135.94;5124890;27;20167;-59
2021/03/24 01:10:16;;;;;;;15.47;12.70;;;;;;;5.68;67.48;97137.91;5137215;27;20772;-60
2021/03/24 01:12:42;;;;;;;18.80;14.60;;;;;;;5.72;68.00;97134.78;5136632;27;20458;-59
2021/03/24 01:15:08;;;;;;;14.97;11.93;;;;;;;5.67;68.64;97125.88;5128286;27;20479;-60
2021/03/24 01:17:34;;;;;;;18.60;13.70;;;;;;;5.65;68.65;97126.03;5114537;28;20202;-59
2021/03/24 01:20:00;;;;;;;17.93;12.73;;;;;;;5.60;68.33;97127.56;5118955;27;20446;-59
2021/03/24 01:22:25;;;;;;;17.10;13.00;;;;;;;5.57;67.67;97125.28;5133624;27;20191;-59
2021/03/24 01:24:52;;;;;;;17.93;12.77;;;;;;;5.56;67.15;97129.69;5136671;27;20225;-59
2021/03/24 01:27:18;;;;;;;16.87;13.07;;;;;;;5.50;67.96;97124.38;5134101;27;20187;-59
2021/03/24 01:29:43;;;;;;;16.00;12.50;;;;;;;5.44;67.81;97125.06;5118282;27;20442;-60
2021/03/24 01:32:09;;;;;;;15.63;13.00;;;;;;;5.47;67.85;97122.13;5129365;27;20177;-59
2021/03/24 01:34:34;;;;;;;17.67;13.40;;;;;;;5.41;68.37;97128.84;5116057;27;20259;-59
2021/03/24 01:36:59;;;;;;;15.23;11.73;;;;;;;5.39;68.63;97122.19;5122273;27;20416;-60
2021/03/24 01:39:25;;;;;;;17.90;12.93;;;;;;;5.41;67.45;97120.22;5122885;27;20566;-60
2021/03/24 01:41:50;;;;;;;17.87;13.50;;;;;;;5.40;67.89;97118.59;5136758;27;20219;-58
2021/03/24 01:44:15;;;;;;;17.43;13.60;;;;;;;5.36;67.89;97119.94;5136416;27;20224;-58
2021/03/24 01:46:46;;;;;;;16.67;12.60;;;;;;;5.37;68.40;97117.16;5134468;27;20176;-59
2021/03/24 01:49:21;;;;;;;17.27;12.60;;;;;;;5.34;68.34;97114.09;5135815;27;20219;-59
2021/03/24 01:52:01;;;;;;;18.77;13.03;;;;;;;5.31;68.71;97104.81;5136020;27;20508;-59
2021/03/24 01:54:35;;;;;;;18.03;13.27;;;;;;;5.18;69.73;97113.22;5135632;27;20820;-59
2021/03/24 01:57:04;;;;;;;20.63;14.90;;;;;;;5.19;70.10;97111.41;5115589;27;20418;-60
2021/03/24 01:59:30;;;;;;;17.93;12.73;;;;;;;5.12;71.57;97100.91;5116394;27;20467;-59
2021/03/24 02:01:57;;;;;;;21.70;15.03;;;;;;;5.05;73.00;97102.53;5122355;27;20432;-60
2021/03/24 02:04:22;;;;;;;19.63;15.27;;;;;;;5.10;72.37;97104.66;5135774;27;20537;-59
2021/03/24 02:07:17;;;;;;;19.53;14.03;;;;;;;5.04;72.73;97100.94;5132391;27;20496;-60
2021/03/24 02:09:50;;;;;;;19.27;13.57;;;;;;;5.19;73.00;97101.00;5103339;27;20676;-60
2021/03/24 02:12:23;;;;;;;24.33;17.20;;;;;;;5.22;73.03;97109.28;5135413;27;20411;-59
2021/03/24 02:15:05;;;;;;;21.27;15.60;;;;;;;5.16;73.35;97106.56;5132535;27;20505;-60
2021/03/24 02:17:36;;;;;;;21.93;15.50;;;;;;;5.34;72.25;97103.66;5126798;27;20423;-60
2021/03/24 02:20:37;;;;;;;18.53;12.97;;;;;;;5.50;70.89;97106.97;5135249;27;21052;-60
2021/03/24 02:23:16;;;;;;;20.40;14.63;;;;;;;5.59;70.53;97095.47;5132753;27;20911;-59
2021/03/24 02:25:50;;;;;;;19.47;14.57;;;;;;;5.60;69.63;97093.69;5132839;27;20423;-60
2021/03/24 02:28:16;;;;;;;16.90;13.70;;;;;;;5.54;69.78;97089.16;5127860;27;20458;-60
2021/03/24 02:30:45;;;;;;;20.23;15.20;;;;;;;5.28;73.15;97094.75;5119652;27;20868;-59
2021/03/24 02:33:26;;;;;;;18.27;14.10;;;;;;;5.16;73.94;97090.94;5135837;27;20563;-60
2021/03/24 02:35:58;;;;;;;18.17;13.50;;;;;;;4.99;74.78;97094.63;5135451;27;20410;-59
2021/03/24 02:38:26;;;;;;;18.90;14.90;;;;;;;5.08;74.95;97085.78;5128505;27;20457;-59
2021/03/24 02:40:53;;;;;;;20.97;14.77;;;;;;;5.29;73.31;97087.75;5120794;27;20417;-58
2021/03/24 02:43:21;;;;;;;20.80;14.33;;;;;;;5.37;73.12;97083.28;5114974;27;20418;-59
2021/03/24 02:45:48;;;;;;;21.10;15.27;;;;;;;5.52;72.68;97076.31;5114994;27;20840;-59
2021/03/24 02:48:22;;;;;;;20.00;13.80;;;;;;;5.67;72.62;97092.78;5114261;28;20492;-59
2021/03/24 02:50:48;;;;;;;20.83;14.80;;;;;;;5.68;71.91;97084.00;5128343;27;20482;-60
2021/03/24 02:53:14;;;;;;;21.70;14.63;;;;;;;5.73;71.16;97092.09;5118301;27;20897;-60
2021/03/24 02:55:42;;;;;;;21.00;14.77;;;;;;;5.74;70.66;97091.09;5114892;27;20180;-60
2021/03/24 02:58:11;;;;;;;19.60;13.67;;;;;;;5.66;70.33;97098.19;5114110;28;20582;-59
2021/03/24 03:00:37;;;;;;;18.87;14.07;;;;;;;5.62;70.31;97099.50;5117005;27;20932;-60
2021/03/24 03:03:11;;;;;;;19.47;14.37;;;;;;;5.63;70.75;97098.53;5115672;27;20423;-59
2021/03/24 03:05:39;;;;;;;20.67;14.67;;;;;;;5.62;71.36;97095.13;5115808;27;20447;-60
2021/03/24 03:08:09;;;;;;;19.20;13.77;;;;;;;5.56;70.74;97102.84;5117336;27;20446;-59
2021/03/24 03:10:40;;;;;;;22.07;14.90;;;;;;;5.57;70.91;97096.63;5122920;27;20417;-60
2021/03/24 03:13:14;;;;;;;19.23;14.00;;;;;;;5.57;70.40;97097.44;5131563;27;20414;-59
2021/03/24 03:15:46;;;;;;;18.83;14.77;;;;;;;5.53;71.81;97100.56;5135300;27;20390;-59
2021/03/24 03:18:18;;;;;;;22.33;13.73;;;;;;;5.48;72.64;97095.91;5134438;27;20897;-59
2021/03/24 03:20:47;;;;;;;21.70;14.30;;;;;;;5.45;73.54;97098.03;5124576;27;20449;-60
2021/03/24 03:23:20;;;;;;;21.80;13.40;;;;;;;5.44;73.21;97086.81;5114587;28;20401;-59
2021/03/24 03:25:55;;;;;;;22.50;14.87;;;;;;;5.35;72.90;97098.28;5114341;27;20414;-58
2021/03/24 03:28:20;;;;;;;20.57;14.43;;;;;;;5.34;73.95;97099.28;5117672;27;20430;-59
2021/03/24 03:30:50;;;;;;;20.30;14.43;;;;;;;5.38;73.83;97097.91;5132009;27;20570;-60
2021/03/24 03:33:22;;;;;;;23.17;14.43;;;;;;;5.48;73.57;97092.47;5114181;28;20764;-60
2021/03/24 03:35:48;;;;;;;26.47;15.73;;;;;;;5.61;72.71;97084.88;5115085;27;20445;-60
2021/03/24 03:38:17;;;;;;;21.00;14.50;;;;;;;5.65;72.73;97081.72;5115178;27;20555;-59
2021/03/24 03:40:45;;;;;;;17.90;14.93;;;;;;;5.72;71.43;97082.66;5122978;27;20180;-60
2021/03/24 03:43:15;;;;;;;22.33;15.40;;;;;;;5.49;72.69;97087.06;5114033;28;20433;-58
2021/03/24 03:45:43;;;;;;;19.40;14.73;;;;;;;5.37;73.40;97083.28;5131485;27;20430;-59
2021/03/24 03:48:10;;;;;;;19.90;14.70;;;;;;;5.43;73.64;97087.81;5123799;27;20447;-59
2021/03/24 03:50:36;;;;;;;26.23;16.90;;;;;;;5.46;73.65;97077.00;5115977;28;20416;-59
2021/03/24 03:53:20;;;;;;;22.97;15.37;;;;;;;5.61;72.73;97087.47;5113945;28;20432;-60
2021/03/24 03:55:48;;;;;;;19.97;14.27;;;;;;;5.56;72.41;97084.59;5126618;28;20161;-58
2021/03/24 03:58:28;;;;;;;20.90;14.20;;;;;;;5.40;73.18;97087.34;5129687;27;20458;-59
2021/03/24 04:00:59;;;;;;;17.87;15.07;;;;;;;5.47;72.12;97083.03;5118411;28;20423;-59
2021/03/24 04:03:33;;;;;;;20.80;15.77;;;;;;;5.55;72.42;97083.78;5133533;28;20413;-59
2021/03/24 04:06:05;;;;;;;20.97;14.30;;;;;;;5.43;72.10;97085.19;5113771;28;20453;-58
2021/03/24 04:08:35;;;;;;;22.47;14.90;;;;;;;5.25;72.29;97076.88;5118621;28;20434;-58
2021/03/24 04:11:10;;;;;;;24.70;15.80;;;;;;;5.38;72.13;97089.31;5120152;27;20408;-58
2021/03/24 04:13:40;;;;;;;19.67;15.83;;;;;;;5.42;72.26;97078.34;5113616;28;20420;-60
2021/03/24 04:16:06;;;;;;;18.83;14.97;;;;;;;5.46;71.99;97087.44;5113767;28;20417;-60
2021/03/24 04:18:44;;;;;;;20.23;15.87;;;;;;;5.36;72.33;97084.28;5115487;28;20492;-59
2021/03/24 04:21:10;;;;;;;22.90;17.23;;;;;;;5.53;72.35;97077.94;5124820;27;20179;-58
2021/03/24 04:23:45;;;;;;;21.40;16.27;;;;;;;5.34;73.15;97085.44;5134265;27;20398;-59
2021/03/24 04:26:18;;;;;;;23.20;16.07;;;;;;;5.34;72.89;97083.63;5115055;27;20811;-59
2021/03/24 04:28:48;;;;;;;25.60;17.00;;;;;;;5.30;74.60;97077.16;5131943;27;20483;-58
2021/03/24 04:31:16;;;;;;;21.03;15.20;;;;;;;5.41;73.48;97076.75;5133501;27;20421;-60
2021/03/24 04:33:41;;;;;;;22.17;15.60;;;;;;;5.31;73.90;97070.94;5134136;27;20766;-60
2021/03/24 04:36:13;;;;;;;21.30;15.73;;;;;;;5.30;73.64;97076.34;5124045;28;20422;-60
2021/03/24 04:38:44;;;;;;;20.70;15.13;;;;;;;5.08;75.58;97076.19;5119274;28;20750;-60
2021/03/24 04:41:16;;;;;;;23.90;15.43;;;;;;;5.19;74.73;97082.78;5118658;27;20407;-59
2021/03/24 04:43:47;;;;;;;19.60;14.97;;;;;;;5.41;74.29;97084.56;5113393;28;20772;-60
2021/03/24 04:46:19;;;;;;;24.70;15.43;;;;;;;5.56;73.59;97074.16;5126269;28;20499;-61
2021/03/24 04:48:56;;;;;;;20.43;16.50;;;;;;;5.62;72.10;97086.47;5133433;27;20421;-58
2021/03/24 04:51:47;;;;;;;23.03;16.13;;;;;;;5.64;70.63;97087.94;5128075;27;20828;-60
2021/03/24 04:54:24;;;;;;;18.70;14.40;;;;;;;5.65;70.62;97099.19;5114900;28;20451;-59
2021/03/24 04:56:54;;;;;;;20.60;16.00;;;;;;;5.63;70.37;97088.94;5113771;28;20478;-61
2021/03/24 04:59:26;;;;;;;19.80;15.80;;;;;;;5.68;69.72;97085.78;5116724;28;20454;-59
2021/03/24 05:01:56;;;;;;;23.90;15.77;;;;;;;5.60;69.67;97088.47;5118011;27;20418;-59
2021/03/24 05:04:30;;;;;;;21.90;15.10;;;;;;;5.58;69.08;97088.63;5117175;28;20876;-59
2021/03/24 05:07:20;;;;;;;24.53;15.80;;;;;;;5.62;69.67;97079.47;5118214;27;20415;-59
2021/03/24 05:09:46;;;;;;;21.90;15.43;;;;;;;5.59;69.26;97079.84;5118082;27;20951;-59
2021/03/24 05:12:14;;;;;;;25.90;15.93;;;;;;;5.54;69.26;97078.75;5116628;28;20410;-59
2021/03/24 05:14:45;;;;;;;18.33;15.50;;;;;;;5.43;68.96;97086.97;5116968;27;20414;-60
2021/03/24 05:17:22;;;;;;;21.00;16.33;;;;;;;5.32;69.58;97090.00;5136624;27;20443;-58
2021/03/24 05:19:49;;;;;;;20.60;14.57;;;;;;;5.31;70.44;97099.59;5133323;27;20521;-60
2021/03/24 05:22:44;;;;;;;21.17;17.00;;;;;;;5.24;69.97;97090.88;5116549;28;20459;-59
2021/03/24 05:25:24;;;;;;;21.53;15.17;;;;;;;5.12;70.80;97093.09;5116709;28;20420;-59
2021/03/24 05:28:18;;;;;;;23.67;16.57;;;;;;;5.17;70.77;97089.94;5116142;28;20911;-59
2021/03/24 05:30:53;;;;;;;21.67;15.43;;;;;;;5.10;71.63;97096.84;5116256;27;20429;-59
2021/03/24 05:33:28;;;;;;;19.83;15.10;;;;;;;5.11;71.57;97096.66;5132265;27;20424;-59
2021/03/24 05:35:56;;;;;;;23.60;15.23;;;;;;;5.10;71.48;97096.84;5132986;27;20414;-59
2021/03/24 05:38:39;;;;;;;21.43;14.93;;;;;;;5.13;71.40;97093.88;5116710;27;20472;-59
2021/03/24 05:41:27;;;;;;;23.53;15.40;;;;;;;5.11;71.41;97101.88;5127453;27;20440;-59
2021/03/24 05:44:32;;;;;;;25.60;15.77;;;;;;;5.08;71.78;97098.78;5116023;28;20764;-59
2021/03/24 05:47:28;;;;;;;22.20;15.67;;;;;;;5.10;72.23;97102.84;5115881;28;20463;-59
2021/03/24 05:50:24;;;;;;;21.27;15.70;;;;;;;5.13;71.25;97106.88;5123973;27;20496;-59
2021/03/24 05:53:34;;;;;;;19.27;15.93;;;;;;;5.08;71.29;97109.22;5136163;27;20459;-60
2021/03/24 05:56:08;;;;;;;25.63;16.43;;;;;;;5.03;72.05;97107.13;5101770;27;20504;-60
2021/03/24 05:59:01;;;;;;;22.97;15.90;;;;;;;5.04;71.42;97100.94;5136064;27;20479;-59
2021/03/24 06:01:46;;;;;;;25.07;17.23;;;;;;;5.08;72.06;97109.22;5135177;27;20419;-59
2021/03/24 06:04:33;;;;;;;22.80;16.10;;;;;;;4.93;72.32;97106.53;5127722;27;20476;-59
2021/03/24 06:07:17;;;;;;;23.10;17.43;;;;;;;4.65;73.96;97109.78;5127915;27;20405;-60
2021/03/24 06:10:04;;;;;;;22.57;16.70;;;;;;;4.78;73.75;97126.47;5125059;27;20532;-60
2021/03/24 06:13:01;;;;;;;24.33;17.90;;;;;;;4.82;73.63;97116.53;5115950;28;20412;-59
2021/03/24 06:15:50;;;;;;;20.67;16.77;;;;;;;4.90;72.83;97116.47;5118574;27;20490;-59
2021/03/24 06:18:28;;;;;;;26.50;18.30;;;;;;;4.83;73.15;97123.34;5121364;27;21021;-60
2021/03/24 06:21:10;;;;;;;24.00;16.40;;;;;;;4.84;73.89;97117.97;5117656;27;20917;-59
2021/03/24 06:23:58;;;;;;;21.80;16.20;;;;;;;4.82;74.45;97121.75;5123354;27;20434;-60
2021/03/24 06:26:38;;;;;;;25.20;18.80;;;;;;;4.88;74.33;97121.88;5134547;27;20419;-60
2021/03/24 06:29:18;;;;;;;27.30;18.20;;;;;;;4.85;74.84;97116.19;5135358;27;20427;-60
2021/03/24 06:32:10;;;;;;;23.17;17.53;;;;;;;5.00;74.60;97117.09;5135635;27;20796;-60
2021/03/24 06:35:18;;;;;;;23.83;17.63;;;;;;;5.16;73.53;97114.38;5118986;27;20474;-60
2021/03/24 06:37:51;;;;;;;23.60;17.37;;;;;;;5.22;74.14;97117.09;5113809;28;20417;-60
2021/03/24 06:40:42;;;;;;;24.27;18.00;;;;;;;5.32;74.66;97113.44;5127121;27;20775;-60
2021/03/24 06:43:22;;;;;;;27.37;18.87;;;;;;;5.38;74.21;97118.75;5131458;27;20425;-59
2021/03/24 06:46:11;;;;;;;26.13;17.93;;;;;;;5.45;74.73;97121.50;5134423;27;20900;-60
2021/03/24 06:48:47;;;;;;;23.93;18.10;;;;;;;5.33;75.80;97122.91;5132911;27;20924;-60
2021/03/24 06:51:33;;;;;;;25.70;17.70;;;;;;;5.55;75.38;97127.25;5130487;27;20421;-60
2021/03/24 06:54:20;;;;;;;26.30;18.07;;;;;;;5.59;75.16;97125.94;5114744;28;20402;-59
2021/03/24 06:57:23;;;;;;;25.07;18.07;;;;;;;5.70;75.27;97117.69;5121655;27;20520;-58
2021/03/24 07:00:25;;;;;;;24.57;17.47;;;;;;;5.85;74.36;97111.53;5133811;27;20464;-60
2021/03/24 07:03:19;;;;;;;27.20;17.33;;;;;;;5.82;74.96;97124.91;5126396;27;20455;-59
2021/03/24 07:05:56;;;;;;;25.80;17.93;;;;;;;5.94;75.09;97120.13;5135228;27;20446;-59
2021/03/24 07:09:10;;;;;;;25.97;17.50;;;;;;;5.70;76.09;97130.72;5131614;27;20490;-58
2021/03/24 07:12:05;;;;;;;26.30;17.80;;;;;;;5.94;75.31;97128.72;5108000;27;20418;-59
2021/03/24 07:14:42;;;;;;;25.17;17.03;;;;;;;6.05;74.29;97133.50;5130641;27;20429;-59
2021/03/24 07:17:50;;;;;;;24.10;17.90;;;;;;;6.09;73.66;97136.56;5119023;27;20417;-59
2021/03/24 07:20:53;;;;;;;22.20;16.87;;;;;;;6.12;73.89;97141.47;5090826;28;20969;-59
2021/03/24 07:23:36;;;;;;;21.90;16.73;;;;;;;6.29;73.48;97137.66;5115226;27;20407;-60
2021/03/24 07:26:04;;;;;;;24.97;18.10;;;;;;;6.41;73.58;97141.47;5114354;28;20476;-60
2021/03/24 07:29:15;;;;;;;28.00;18.33;;;;;;;6.31;72.68;97147.94;5118852;27;20433;-59
2021/03/24 07:31:47;;;;;;;26.50;18.17;;;;;;;6.30;72.76;97143.72;5116321;27;20418;-60
2021/03/24 07:34:45;;;;;;;20.00;16.50;;;;;;;6.48;73.30;97138.94;5125037;27;20406;-60
2021/03/24 07:37:11;;;;;;;24.77;17.63;;;;;;;6.57;73.00;97149.13;5125652;27;20433;-61
2021/03/24 07:39:37;;;;;;;22.40;17.97;;;;;;;6.57;73.37;97145.69;5113626;28;20830;-59
2021/03/24 07:42:17;;;;;;;24.13;17.60;;;;;;;6.59;72.78;97143.72;5113936;28;20795;-60
2021/03/24 07:44:54;;;;;;;23.67;17.50;;;;;;;6.38;73.75;97148.84;5116818;27;20177;-60
2021/03/24 07:47:37;;;;;;;20.47;16.10;;;;;;;6.33;73.66;97153.78;5120991;27;20482;-59
2021/03/24 07:50:21;;;;;;;24.70;16.13;;;;;;;6.27;74.78;97152.69;5126023;27;20455;-59
2021/03/24 07:53:12;;;;;;;21.70;16.40;;;;;;;6.12;75.40;97157.91;5112982;28;20759;-59
2021/03/24 07:56:06;;;;;;;22.20;16.10;;;;;;;5.92;75.67;97162.03;5117742;28;20441;-58
2021/03/24 07:58:35;;;;;;;20.70;16.00;;;;;;;5.80;76.67;97159.97;5127825;27;20480;-58
2021/03/24 08:01:28;;;;;;;24.17;15.80;;;;;;;6.07;75.94;97154.19;5134675;27;20406;-59
2021/03/24 08:04:35;;;;;;;20.43;15.33;;;;;;;6.34;75.19;97150.19;5132279;27;20529;-60
2021/03/24 08:07:03;;;;;;;21.37;14.83;;;;;;;6.17;75.51;97144.34;5105873;27;20458;-61
2021/03/24 08:09:50;;;;;;;22.20;15.83;;;;;;;6.78;73.98;97146.56;5115868;28;20492;-62
2021/03/24 08:12:29;;;;;;;21.63;15.03;;;;;;;6.76;73.63;97140.72;5132897;28;20933;-62
2021/03/24 08:15:07;;;;;;;23.30;16.00;;;;;;;6.70;73.57;97144.06;5132195;27;20488;-59
2021/03/24 08:17:50;;;;;;;21.67;14.43;;;;;;;7.22;71.51;97136.03;5133605;27;20412;-59
2021/03/24 08:20:39;;;;;;;16.87;14.13;;;;;;;7.51;70.93;97137.72;5134168;27;20443;-59
2021/03/24 08:23:18;;;;;;;20.03;14.50;;;;;;;7.73;70.56;97134.91;5131576;28;20423;-60
2021/03/24 08:26:16;;;;;;;20.10;15.23;;;;;;;7.62;70.41;97142.44;5113701;28;20411;-61
2021/03/24 08:28:48;;;;;;;18.40;13.57;;;;;;;7.58;70.01;97151.66;5111701;28;20941;-59
2021/03/24 08:31:43;;;;;;;18.87;14.20;;;;;;;7.76;68.77;97144.16;5118376;27;20453;-60
2021/03/24 08:35:03;;;;;;;18.40;14.17;;;;;;;7.85;68.43;97145.66;5134478;27;20454;-61
2021/03/24 08:37:47;;;;;;;21.37;14.70;;;;;;;8.11;68.72;97145.88;5054331;28;20454;-61
2021/03/24 08:40:51;;;;;;;22.00;15.63;;;;;;;8.19;67.65;97138.66;5112440;28;20501;-61
2021/03/24 08:44:00;;;;;;;20.97;14.90;;;;;;;8.35;67.62;97135.00;5082874;28;20471;-62
2021/03/24 08:46:42;;;;;;;16.90;15.10;;;;;;;8.56;66.38;97134.91;5061819;28;20843;-62
2021/03/24 08:49:14;;;;;;;18.77;14.40;;;;;;;8.25;66.76;97131.88;5070081;28;20449;-60
2021/03/24 08:51:55;;;;;;;20.03;14.93;;;;;;;8.25;66.74;97142.38;5095479;27;20417;-61
2021/03/24 08:54:56;;;;;;;20.30;13.70;;;;;;;8.07;67.83;97140.22;5126868;27;20436;-61
2021/03/24 08:57:32;;;;;;;17.27;13.07;;;;;;;8.41;68.12;97141.28;5137175;27;20409;-62
2021/03/24 09:00:15;;;;;;;20.83;14.43;;;;;;;8.70;66.31;97131.34;5137124;27;20436;-60
2021/03/24 09:03:23;;;;;;;18.80;14.30;;;;;;;8.98;66.90;97139.13;5121339;27;20473;-60
2021/03/24 09:06:04;;;;;;;21.40;15.43;;;;;;;8.91;65.19;97130.44;5123847;27;20418;-59
2021/03/24 09:08:38;;;;;;;17.13;13.93;;;;;;;9.03;66.58;97134.91;5136975;27;20433;-59
2021/03/24 09:11:22;;;;;;;17.30;13.43;;;;;;;9.11;65.79;97133.94;5121529;27;20520;-60
2021/03/24 09:14:12;;;;;;;17.43;14.37;;;;;;;9.21;66.49;97139.59;5113614;28;20502;-59
2021/03/24 09:17:05;;;;;;;19.60;15.67;;;;;;;9.31;64.25;97134.78;5113093;28;20401;-60
2021/03/24 09:19:37;;;;;;;20.40;15.03;;;;;;;9.48;62.81;97135.22;5112848;28;21023;-60
2021/03/24 09:22:42;;;;;;;22.50;14.70;;;;;;;9.45;63.65;97133.81;5122740;27;20886;-60
2021/03/24 09:25:43;;;;;;;20.13;13.63;;;;;;;9.86;64.63;97133.63;5119230;27;20423;-60
2021/03/24 09:28:17;;;;;;;21.87;15.03;;;;;;;10.10;63.63;97135.69;5133168;27;20819;-60
2021/03/24 09:31:08;;;;;;;18.60;14.63;;;;;;;10.33;63.89;97129.00;5133351;27;20415;-59
2021/03/24 09:33:36;;;;;;;23.60;15.37;;;;;;;10.50;62.28;97125.91;5128798;27;20441;-60
2021/03/24 09:36:23;;;;;;;17.13;14.13;;;;;;;10.61;60.15;97135.81;5118582;27;20429;-60
2021/03/24 09:38:52;;;;;;;20.07;15.10;;;;;;;10.60;60.48;97126.31;5111572;28;20468;-61
2021/03/24 09:41:17;;;;;;;17.83;14.17;;;;;;;10.58;60.23;97125.72;5112783;28;20562;-60
2021/03/24 09:43:45;;;;;;;20.20;14.97;;;;;;;10.85;61.43;97124.63;5111733;28;20493;-60
2021/03/24 09:46:29;;;;;;;17.10;13.93;;;;;;;10.92;59.11;97114.88;5114482;27;20237;-61
2021/03/24 09:49:02;;;;;;;17.87;13.10;;;;;;;11.07;58.74;97118.06;5136150;27;20507;-61
2021/03/24 09:51:27;;;;;;;19.07;14.43;;;;;;;11.21;58.96;97117.75;5133702;27;20429;-60
2021/03/24 09:53:53;;;;;;;18.13;14.17;;;;;;;11.52;58.82;97110.91;5134639;27;20772;-61
2021/03/24 09:56:24;;;;;;;19.07;15.77;;;;;;;11.48;56.92;97112.34;5120012;27;20183;-61
2021/03/24 09:59:22;;;;;;;22.97;16.30;;;;;;;11.35;55.89;97107.97;5115100;28;20263;-61
2021/03/24 10:02:37;;;;;;;15.23;12.80;;;;;;;11.53;57.51;97104.59;5116021;28;20442;-60
2021/03/24 10:05:08;;;;;;;15.77;13.00;;;;;;;11.77;55.54;97099.41;5038430;28;20435;-60
2021/03/24 10:07:41;;;;;;;15.57;13.60;;;;;;;11.83;56.67;97108.28;5114528;27;20421;-60
2021/03/24 10:10:06;;;;;;;20.30;14.57;;;;;;;11.81;56.61;97099.78;5115347;28;20474;-60
2021/03/24 10:12:57;;;;;;;17.20;13.43;;;;;;;12.07;57.31;97103.00;5121360;27;20447;-60
2021/03/24 10:15:39;;;;;;;14.90;12.93;;;;;;;12.29;56.05;97098.13;5116757;27;20529;-60
2021/03/24 10:18:07;;;;;;;16.43;14.30;;;;;;;12.38;57.49;97100.28;5131408;27;20992;-60
2021/03/24 10:20:51;;;;;;;17.17;13.80;;;;;;;12.55;55.61;97097.88;5115352;28;20464;-60
2021/03/24 10:23:39;;;;;;;15.20;12.63;;;;;;;12.47;52.77;97099.97;5124167;27;20501;-61
2021/03/24 10:26:40;;;;;;;18.17;13.23;;;;;;;12.60;52.32;97095.38;5133767;27;20501;-61
2021/03/24 10:29:12;;;;;;;15.40;12.13;;;;;;;12.94;55.04;97093.94;5123175;27;20430;-61
2021/03/24 10:31:45;;;;;;;14.97;12.20;;;;;;;12.75;53.12;97092.38;5121040;27;20957;-58
2021/03/24 10:34:21;;;;;;;16.33;13.17;;;;;;;12.57;50.79;97080.00;5126718;27;20419;-59
2021/03/24 10:37:18;;;;;;;16.37;13.60;;;;;;;12.61;53.50;97075.88;5132007;27;20459;-58
2021/03/24 10:39:46;;;;;;;16.27;13.43;;;;;;;12.95;55.87;97085.03;5122713;27;20458;-57
2021/03/24 10:42:40;;;;;;;15.00;12.90;;;;;;;13.29;52.48;97073.84;5119335;27;20518;-58
2021/03/24 10:45:26;;;;;;;16.03;12.90;;;;;;;13.53;50.82;97072.88;5132871;27;20454;-58
2021/03/24 10:48:04;;;;;;;14.53;12.97;;;;;;;13.72;51.02;97071.75;5114670;27;20439;-57
2021/03/24 10:51:08;;;;;;;14.90;12.17;;;;;;;13.92;51.96;97068.78;5128300;27;20426;-58
2021/03/24 10:53:34;;;;;;;15.40;12.30;;;;;;;14.13;50.43;97065.59;5087862;27;20909;-57
2021/03/24 10:56:11;;;;;;;15.00;12.73;;;;;;;14.17;49.18;97056.97;5115671;27;20875;-59
2021/03/24 10:58:58;;;;;;;16.67;13.50;;;;;;;14.23;51.26;97063.97;5126761;27;20462;-58
2021/03/24 11:01:55;;;;;;;16.73;13.03;;;;;;;14.35;50.84;97056.03;5124676;27;20425;-58
2021/03/24 11:04:51;;;;;;;13.40;11.17;;;;;;;14.59;48.48;97062.09;5128356;27;20415;-58
2021/03/24 11:07:17;;;;;;;17.60;11.53;;;;;;;14.49;46.85;97059.25;5134764;27;20403;-58
2021/03/24 11:09:51;;;;;;;15.50;12.30;;;;;;;14.54;48.31;97051.44;5134804;27;20944;-58
2021/03/24 11:12:23;;;;;;;15.43;10.77;;;;;;;14.80;49.81;97053.56;5134968;27;20224;-58
2021/03/24 11:15:04;;;;;;;13.53;11.67;;;;;;;14.93;47.43;97053.28;5135225;27;20731;-58
2021/03/24 11:17:38;;;;;;;14.40;11.53;;;;;;;15.18;47.19;97045.81;5134149;27;20414;-58
2021/03/24 11:20:13;;;;;;;18.80;11.20;;;;;;;15.20;46.14;97035.81;5134877;27;20444;-58
2021/03/24 11:22:38;;;;;;;15.83;11.90;;;;;;;15.26;46.03;97037.47;5134936;27;20402;-58
2021/03/24 11:25:34;;;;;;;14.50;12.43;;;;;;;15.30;46.56;97035.97;5122495;27;20441;-58
2021/03/24 11:28:04;;;;;;;15.97;11.67;;;;;;;15.37;45.71;97031.31;5113409;28;20302;-58
2021/03/24 11:30:39;;;;;;;14.53;12.40;;;;;;;15.34;44.56;97029.94;5120688;27;20430;-58
2021/03/24 11:33:19;;;;;;;14.57;12.83;;;;;;;15.26;44.46;97035.66;5126950;27;20419;-58
2021/03/24 11:35:57;;;;;;;13.60;12.20;;;;;;;15.36;44.46;97032.38;5113997;28;20399;-58
2021/03/24 11:38:47;;;;;;;12.87;11.47;;;;;;;15.19;44.55;97026.22;5125904;27;20469;-57
2021/03/24 11:41:25;;;;;;;14.20;11.90;;;;;;;15.14;44.59;97029.63;5134889;27;20459;-58
2021/03/24 11:43:56;;;;;;;17.17;13.73;;;;;;;15.07;44.15;97023.63;5134610;27;20768;-58
2021/03/24 11:46:53;;;;;;;18.47;12.80;;;;;;;15.02;44.95;97028.84;5134300;27;20404;-59
2021/03/24 11:49:24;;;;;;;17.13;13.10;;;;;;;14.92;45.32;97025.22;5114490;27;20879;-60
2021/03/24 11:52:31;;;;;;;15.70;12.43;;;;;;;15.27;45.03;97020.56;5114773;28;20428;-61
2021/03/24 11:54:58;;;;;;;13.97;11.23;;;;;;;15.41;45.15;97027.19;5096512;28;20467;-60
2021/03/24 11:57:54;;;;;;;14.60;12.50;;;;;;;15.77;44.30;97034.66;5127705;28;20530;-61
2021/03/24 12:00:32;;;;;;;16.83;12.93;;;;;;;15.82;46.23;97020.69;5113627;28;20488;-60
2021/03/24 12:03:08;;;;;;;20.00;12.57;;;;;;;16.00;46.17;97018.59;5114101;28;20922;-61
2021/03/24 12:06:04;;;;;;;15.67;13.50;;;;;;;16.24;43.35;97021.84;5113892;28;20490;-60
2021/03/24 12:08:39;;;;;;;18.97;14.00;;;;;;;16.23;44.42;97020.25;5105112;28;20437;-61
2021/03/24 12:11:29;;;;;;;14.50;13.10;;;;;;;16.50;43.40;97015.84;5123200;27;20417;-61
2021/03/24 12:14:09;;;;;;;13.90;12.50;;;;;;;16.89;43.43;97017.38;5138615;27;20390;-60